If you wish to contribute or participate in the discussions about articles you are invited to join SKYbrary as a registered user

 Actions

Ishigaki Airport

From SKYbrary Wiki

ROIG
Airport
ICAO: ROIG – IATA: ISG
Summary
Name Ishigaki Airport
Region Asia and Pacific
Territory Japan JP.gif
Location Shiraho, Okinawa
Serving Ishigaki
Elevation 26.213 m
86 ft
86 ft26.213 m
Coordinates 24° 23' 26.97" N, 124° 14' 45.14" E
Runways
Designator Length Width Surface ROPS
4/22 1500 m4,921.26 ft
46 m150.919 ft
ASP yes/yes


METAR
Observation ROIG 111000Z 06003KT 9999 FEW014 SCT027 BKN041 24/22 Q1009
Station Ishigakijima
Date/Time 11 April 2019 10:00:00
Wind direction 60°
Wind speed 03 kts
Lowest cloud amount few clouds
Temperature 24°C
Dew point 22°C
Humidity 88%
QNH 1009 hPa
Weather condition n/a

New Ishigaki Airport, also branded as Painushima Ishigaki Airport, is a regional airport located in the Shiraho district of Ishigaki, Okinawa Prefecture, Japan.

Climatology

Humid Sub-tropical climate (Köppen climate classification Cwa)

Maps

Terrain

Loading map...

Airport Layout

Loading map...


Accidents & Serious Incidents at or in vicinity of ROIG

None on SKYbrary